Time;durP1;ratioP1;P1;durP2;ratioP2;P2;SDS_P1;SDS_P2;PMS_P1;PMS_P2;Temp;Humidity;BMP_temperature;BMP_pressure;BME280_temperature;BME280_humidity;BME280_pressure;Samples;Min_cycle;Max_cycle;Signal;HPM_P1;HPM_P2
2023/08/07 00:02:04;;;;;;;12.77;10.30;;;19.30;99.90;;;;;;5024692;28;20053;-65
2023/08/07 00:04:31;;;;;;;10.70;9.15;;;19.30;99.90;;;;;;5025908;28;20491;-68
2023/08/07 00:06:58;;;;;;;13.95;11.00;;;19.20;99.90;;;;;;5026526;28;20136;-64
2023/08/07 00:09:25;;;;;;;15.65;10.65;;;19.20;99.90;;;;;;5025533;28;20494;-64
2023/08/07 00:11:52;;;;;;;22.10;11.27;;;19.20;99.90;;;;;;5024504;28;20127;-65
2023/08/07 00:14:19;;;;;;;16.10;11.07;;;19.20;99.90;;;;;;5024025;28;20692;-65
2023/08/07 00:16:46;;;;;;;13.75;10.45;;;19.20;99.90;;;;;;5023515;28;20045;-65
2023/08/07 00:19:13;;;;;;;15.63;10.98;;;19.20;99.90;;;;;;5024167;28;20144;-64
2023/08/07 00:21:41;;;;;;;14.10;9.57;;;19.20;99.90;;;;;;5026594;28;20041;-66
2023/08/07 00:24:08;;;;;;;14.13;10.13;;;19.20;99.90;;;;;;5024534;28;20099;-67
2023/08/07 00:26:35;;;;;;;18.90;10.35;;;19.20;99.90;;;;;;5023638;28;20083;-65
2023/08/07 00:29:03;;;;;;;14.65;11.57;;;19.20;99.90;;;;;;5024348;28;20056;-66
2023/08/07 00:31:31;;;;;;;18.80;11.93;;;19.20;99.90;;;;;;5025155;28;20389;-65
2023/08/07 00:33:59;;;;;;;16.88;13.73;;;19.20;99.90;;;;;;5016432;28;20046;-65
2023/08/07 00:36:28;;;;;;;15.40;12.25;;;19.20;99.90;;;;;;5024484;28;20049;-67
2023/08/07 00:38:55;;;;;;;21.60;13.43;;;19.20;99.90;;;;;;5021334;28;20043;-65
2023/08/07 00:41:23;;;;;;;13.25;11.88;;;19.20;99.90;;;;;;5023388;28;20041;-65
2023/08/07 00:43:50;;;;;;;17.63;13.75;;;19.20;99.90;;;;;;5023294;28;20542;-63
2023/08/07 00:46:17;;;;;;;16.70;13.85;;;19.30;99.90;;;;;;5023998;28;20246;-63
2023/08/07 00:48:45;;;;;;;16.35;14.60;;;19.20;99.90;;;;;;5024291;28;20048;-65
2023/08/07 00:51:12;;;;;;;20.77;15.07;;;19.20;99.90;;;;;;5024011;28;20049;-67
2023/08/07 00:53:39;;;;;;;21.70;15.55;;;19.20;99.90;;;;;;5019472;28;20084;-63
2023/08/07 00:56:07;;;;;;;21.02;16.05;;;19.30;99.90;;;;;;5023771;28;20053;-65
2023/08/07 00:58:35;;;;;;;21.05;14.88;;;19.30;99.90;;;;;;5023356;28;20049;-65
2023/08/07 01:01:02;;;;;;;21.63;15.93;;;19.30;99.90;;;;;;5022547;28;20526;-66
2023/08/07 01:03:29;;;;;;;18.27;15.52;;;19.30;99.90;;;;;;5021959;28;20045;-64
2023/08/07 01:05:56;;;;;;;22.52;17.52;;;19.30;99.90;;;;;;5022751;28;20924;-66
2023/08/07 01:08:24;;;;;;;19.98;16.63;;;19.30;99.90;;;;;;5023977;28;20045;-64
2023/08/07 01:11:21;;;;;;;21.30;17.17;;;19.30;99.90;;;;;;5036438;28;20488;-66
2023/08/07 01:14:07;;;;;;;22.52;17.58;;;19.30;99.90;;;;;;5020803;28;20041;-65
2023/08/07 01:16:52;;;;;;;23.27;17.27;;;19.30;99.90;;;;;;5021909;28;20053;-65
2023/08/07 01:19:27;;;;;;;23.83;16.73;;;19.30;99.90;;;;;;5024530;28;20136;-65
2023/08/07 01:22:11;;;;;;;23.02;17.65;;;19.30;99.90;;;;;;5022947;28;20678;-65
2023/08/07 01:24:40;;;;;;;21.80;17.52;;;19.40;99.90;;;;;;5031458;28;20073;-64
2023/08/07 01:27:15;;;;;;;23.70;18.05;;;19.30;99.90;;;;;;5023398;28;20503;-66
2023/08/07 01:30:15;;;;;;;21.00;17.48;;;19.30;99.90;;;;;;5022145;28;20502;-65
2023/08/07 01:32:57;;;;;;;26.38;19.08;;;19.30;99.90;;;;;;5015905;28;20151;-64
2023/08/07 01:35:29;;;;;;;25.40;18.90;;;19.30;99.90;;;;;;5021688;28;20068;-65
2023/08/07 01:37:57;;;;;;;24.80;17.15;;;19.30;99.90;;;;;;5016885;28;20161;-66
2023/08/07 01:40:25;;;;;;;20.17;15.77;;;19.30;99.90;;;;;;5034875;28;20176;-66
2023/08/07 01:42:52;;;;;;;19.40;16.55;;;19.20;99.90;;;;;;5033929;28;20041;-66
2023/08/07 01:45:27;;;;;;;25.85;17.95;;;19.20;99.90;;;;;;5021243;28;20053;-64
2023/08/07 01:47:54;;;;;;;19.88;17.38;;;19.20;99.90;;;;;;5017353;28;20504;-67
2023/08/07 01:50:22;;;;;;;23.95;17.30;;;19.20;99.90;;;;;;5019015;28;20057;-65
2023/08/07 01:52:49;;;;;;;23.23;15.65;;;19.20;99.90;;;;;;5015392;28;20041;-65
2023/08/07 01:55:18;;;;;;;23.05;17.55;;;19.10;99.90;;;;;;5024071;28;20045;-66
2023/08/07 01:57:51;;;;;;;18.15;16.25;;;19.10;99.90;;;;;;5019336;28;20082;-64
2023/08/07 02:00:19;;;;;;;20.20;16.88;;;19.10;99.90;;;;;;5019755;28;20595;-65
2023/08/07 02:02:46;;;;;;;22.50;18.13;;;19.10;99.90;;;;;;5018217;28;20045;-67
2023/08/07 02:05:15;;;;;;;27.48;17.92;;;19.10;99.90;;;;;;5020034;28;20760;-67
2023/08/07 02:07:42;;;;;;;24.50;19.08;;;19.10;99.90;;;;;;5020791;28;20049;-64
2023/08/07 02:10:09;;;;;;;25.30;17.52;;;19.10;99.90;;;;;;5020886;28;20721;-65
2023/08/07 02:12:37;;;;;;;20.17;18.08;;;19.10;99.90;;;;;;5023512;28;20034;-65
2023/08/07 02:15:04;;;;;;;22.45;17.35;;;19.00;99.90;;;;;;5023080;28;20038;-66
2023/08/07 02:17:32;;;;;;;27.80;16.95;;;19.00;99.90;;;;;;5018509;28;20128;-67
2023/08/07 02:19:59;;;;;;;24.80;17.83;;;19.00;99.90;;;;;;5022824;28;20068;-68
2023/08/07 02:22:26;;;;;;;20.48;18.38;;;19.00;99.90;;;;;;5023841;28;20061;-67
2023/08/07 02:24:53;;;;;;;22.17;19.92;;;19.00;99.90;;;;;;5021852;28;20053;-67
2023/08/07 02:27:20;;;;;;;21.90;19.73;;;19.00;99.90;;;;;;5020908;28;20053;-68
2023/08/07 02:29:47;;;;;;;19.42;17.55;;;19.00;99.90;;;;;;5017613;28;20034;-67
2023/08/07 02:32:14;;;;;;;22.45;19.42;;;19.00;99.90;;;;;;5022769;28;20056;-69
2023/08/07 02:34:41;;;;;;;21.35;18.02;;;19.10;99.90;;;;;;5020425;28;20044;-66
2023/08/07 02:37:08;;;;;;;23.52;18.25;;;19.10;99.90;;;;;;5022675;28;20049;-68
2023/08/07 02:39:35;;;;;;;23.90;17.92;;;19.10;99.90;;;;;;5020620;28;20053;-65
2023/08/07 02:42:03;;;;;;;22.17;18.42;;;19.20;99.90;;;;;;5021600;28;20626;-67
2023/08/07 02:44:30;;;;;;;19.60;17.48;;;19.20;99.90;;;;;;5021922;28;20045;-65
2023/08/07 02:46:56;;;;;;;23.35;19.67;;;19.20;99.90;;;;;;5019899;28;20068;-64
2023/08/07 02:49:24;;;;;;;27.23;19.67;;;19.20;99.90;;;;;;5021561;28;20041;-67
2023/08/07 02:51:52;;;;;;;19.77;17.50;;;19.20;99.90;;;;;;5023067;28;20042;-64
2023/08/07 02:54:19;;;;;;;25.10;18.48;;;19.20;99.90;;;;;;5017666;28;20089;-64
2023/08/07 02:56:46;;;;;;;29.25;20.33;;;19.20;99.90;;;;;;5023197;28;20549;-64
2023/08/07 02:59:12;;;;;;;21.83;19.48;;;19.20;99.90;;;;;;5032745;28;20939;-65
2023/08/07 03:01:39;;;;;;;23.42;20.92;;;19.20;99.90;;;;;;5022701;28;20132;-66
2023/08/07 03:04:06;;;;;;;23.92;18.92;;;19.20;99.90;;;;;;5033075;28;20045;-67
2023/08/07 03:06:33;;;;;;;20.17;18.08;;;19.30;99.90;;;;;;5024490;28;20099;-68
2023/08/07 03:09:00;;;;;;;35.85;21.65;;;19.30;99.90;;;;;;5020291;28;20037;-67
2023/08/07 03:11:27;;;;;;;22.45;19.35;;;19.30;99.90;;;;;;5022261;28;20483;-65
2023/08/07 03:13:54;;;;;;;22.98;20.88;;;19.30;99.90;;;;;;5018804;28;20514;-68
2023/08/07 03:16:21;;;;;;;23.13;20.73;;;19.30;99.90;;;;;;5018562;28;20065;-68
2023/08/07 03:18:48;;;;;;;26.60;19.55;;;19.30;99.90;;;;;;5035254;28;20168;-66
2023/08/07 03:21:15;;;;;;;21.00;18.95;;;19.40;99.90;;;;;;5018047;28;20618;-69
2023/08/07 03:23:42;;;;;;;21.00;18.70;;;19.40;99.90;;;;;;5021954;28;20045;-64
2023/08/07 03:26:12;;;;;;;22.58;20.17;;;19.40;99.90;;;;;;5035258;28;20078;-68
2023/08/07 03:28:42;;;;;;;28.88;24.83;;;19.40;99.90;;;;;;5033531;28;20146;-66
2023/08/07 03:31:09;;;;;;;24.85;22.35;;;19.40;99.90;;;;;;5019036;28;20041;-65
2023/08/07 03:33:36;;;;;;;23.98;19.42;;;19.40;99.90;;;;;;5034825;28;20060;-65
2023/08/07 03:36:04;;;;;;;23.80;19.90;;;19.40;99.90;;;;;;5021096;28;20049;-65
2023/08/07 03:38:32;;;;;;;23.40;20.02;;;19.40;99.90;;;;;;5016186;28;20049;-68
2023/08/07 03:40:59;;;;;;;26.38;22.13;;;19.40;99.90;;;;;;5015592;28;20150;-67
2023/08/07 03:43:27;;;;;;;21.42;19.30;;;19.40;99.90;;;;;;5019612;28;20071;-66
2023/08/07 03:45:57;;;;;;;23.52;21.08;;;19.40;99.90;;;;;;5021814;28;20164;-66
2023/08/07 03:48:30;;;;;;;21.40;19.20;;;19.40;99.90;;;;;;5018318;28;20046;-69
2023/08/07 03:51:03;;;;;;;28.10;21.33;;;19.40;99.90;;;;;;5021079;28;20160;-68
2023/08/07 03:53:33;;;;;;;24.08;21.60;;;19.50;99.90;;;;;;5020076;28;20077;-65
2023/08/07 03:56:00;;;;;;;25.67;19.75;;;19.40;99.90;;;;;;5021889;28;20046;-65
2023/08/07 03:58:28;;;;;;;23.48;18.00;;;19.50;99.90;;;;;;5015794;28;20049;-65
2023/08/07 04:00:56;;;;;;;24.23;20.40;;;19.50;99.90;;;;;;5017206;28;20603;-66
2023/08/07 04:03:23;;;;;;;22.38;18.85;;;19.50;99.90;;;;;;5019184;28;20049;-66
2023/08/07 04:05:54;;;;;;;22.80;20.20;;;19.50;99.90;;;;;;5020231;28;20049;-65
2023/08/07 04:08:22;;;;;;;23.27;20.38;;;19.50;99.90;;;;;;5021322;28;20673;-65
2023/08/07 04:11:03;;;;;;;24.88;21.90;;;19.50;99.90;;;;;;5017827;28;20485;-65
2023/08/07 04:13:32;;;;;;;17.73;15.93;;;19.50;99.90;;;;;;5034307;28;20056;-66
2023/08/07 04:16:01;;;;;;;21.83;18.25;;;19.50;99.90;;;;;;5034905;28;20041;-66
2023/08/07 04:18:29;;;;;;;20.45;17.05;;;19.50;99.90;;;;;;5013581;28;20496;-65
2023/08/07 04:20:57;;;;;;;20.55;18.35;;;19.60;99.90;;;;;;5029608;28;20042;-66
2023/08/07 04:23:24;;;;;;;18.83;17.10;;;19.60;99.90;;;;;;5017282;28;20741;-66
2023/08/07 04:25:53;;;;;;;20.42;18.33;;;19.60;99.90;;;;;;5021092;28;20439;-65
2023/08/07 04:28:20;;;;;;;19.42;17.63;;;19.60;99.90;;;;;;5017267;28;20160;-65
2023/08/07 04:30:51;;;;;;;18.17;15.90;;;19.60;99.90;;;;;;5017931;28;20045;-65
2023/08/07 04:33:20;;;;;;;21.80;18.83;;;19.60;99.90;;;;;;5018813;28;20069;-66
2023/08/07 04:35:47;;;;;;;20.55;17.23;;;19.60;99.90;;;;;;5021732;28;20049;-69
2023/08/07 04:38:15;;;;;;;19.27;17.40;;;19.60;99.90;;;;;;5016511;28;20572;-66
2023/08/07 04:40:49;;;;;;;18.58;16.55;;;19.70;99.90;;;;;;5022009;28;20731;-67
2023/08/07 04:43:17;;;;;;;25.02;16.90;;;19.60;99.90;;;;;;5023143;28;20041;-66
2023/08/07 04:45:47;;;;;;;20.13;17.92;;;19.70;99.90;;;;;;5023460;28;20144;-66
2023/08/07 04:48:15;;;;;;;18.00;16.20;;;19.70;99.90;;;;;;5023921;28;20089;-67
2023/08/07 04:50:41;;;;;;;19.35;16.52;;;19.80;99.90;;;;;;5023336;28;20144;-68
2023/08/07 04:53:08;;;;;;;18.27;16.58;;;19.70;99.90;;;;;;5017635;28;20046;-67
2023/08/07 04:55:35;;;;;;;18.27;16.58;;;19.80;99.90;;;;;;5021520;28;20046;-69
2023/08/07 04:58:02;;;;;;;23.65;18.40;;;19.80;99.90;;;;;;5024469;28;20158;-69
2023/08/07 05:00:29;;;;;;;18.65;16.67;;;19.80;99.90;;;;;;5022323;28;20056;-67
2023/08/07 05:02:56;;;;;;;21.10;17.95;;;19.90;99.90;;;;;;5023215;28;20053;-67
2023/08/07 05:05:23;;;;;;;19.27;15.93;;;19.90;99.90;;;;;;5022724;28;20045;-69
2023/08/07 05:07:50;;;;;;;17.48;15.88;;;19.90;99.90;;;;;;5021238;28;20064;-67
2023/08/07 05:10:17;;;;;;;18.63;16.88;;;19.90;99.90;;;;;;5022897;28;20073;-66
2023/08/07 05:12:44;;;;;;;18.75;17.02;;;19.90;99.90;;;;;;5022494;28;20064;-67
2023/08/07 05:15:11;;;;;;;17.20;15.30;;;20.00;99.90;;;;;;5019879;28;20565;-67
2023/08/07 05:17:38;;;;;;;17.42;14.27;;;20.00;99.90;;;;;;5021158;28;20050;-69
2023/08/07 05:20:06;;;;;;;16.75;15.07;;;20.00;99.90;;;;;;5021510;28;20709;-68
2023/08/07 05:22:33;;;;;;;16.08;14.38;;;20.00;99.90;;;;;;5018542;28;20077;-72
2023/08/07 05:25:00;;;;;;;15.77;14.27;;;20.00;99.90;;;;;;5023796;28;20609;-65
2023/08/07 05:27:28;;;;;;;18.77;13.93;;;20.10;99.90;;;;;;5022306;28;20057;-68
2023/08/07 05:29:55;;;;;;;15.07;13.80;;;20.10;99.90;;;;;;5020141;28;20069;-68
2023/08/07 05:32:22;;;;;;;15.00;13.43;;;20.10;99.90;;;;;;5020268;28;20057;-66
2023/08/07 05:34:50;;;;;;;16.10;14.48;;;20.10;99.90;;;;;;5022949;28;20084;-65
2023/08/07 05:37:17;;;;;;;15.15;13.63;;;20.20;99.90;;;;;;5020920;28;20052;-65
2023/08/07 05:39:44;;;;;;;15.77;14.20;;;20.20;99.90;;;;;;5024349;28;20065;-67
2023/08/07 05:42:12;;;;;;;14.60;13.20;;;20.20;99.90;;;;;;5020533;28;20240;-66
2023/08/07 05:44:39;;;;;;;15.43;14.00;;;20.20;99.90;;;;;;5021248;28;20091;-68
2023/08/07 05:47:06;;;;;;;16.85;13.93;;;20.10;99.90;;;;;;5020922;28;20052;-68
2023/08/07 05:49:33;;;;;;;16.02;14.38;;;20.20;99.90;;;;;;5022854;28;20033;-68
2023/08/07 05:52:00;;;;;;;16.23;14.05;;;20.20;99.90;;;;;;5022853;28;20211;-66
2023/08/07 05:54:27;;;;;;;20.77;15.52;;;20.20;99.90;;;;;;5018856;28;20053;-65
2023/08/07 05:56:54;;;;;;;16.25;14.75;;;20.20;99.90;;;;;;5024399;28;20128;-66
2023/08/07 05:59:21;;;;;;;16.58;14.98;;;20.20;99.90;;;;;;5018404;28;20080;-66
2023/08/07 06:01:48;;;;;;;20.67;17.20;;;20.20;99.90;;;;;;5019103;28;20958;-65
2023/08/07 06:04:15;;;;;;;19.17;16.55;;;20.20;99.90;;;;;;5019396;28;20120;-65
2023/08/07 06:06:42;;;;;;;17.10;15.00;;;20.20;99.90;;;;;;5023140;28;20131;-68
2023/08/07 06:09:09;;;;;;;19.15;15.45;;;20.20;99.90;;;;;;5018019;28;20049;-67
2023/08/07 06:11:36;;;;;;;24.40;16.58;;;20.20;99.90;;;;;;5022561;28;20052;-65
2023/08/07 06:14:03;;;;;;;24.25;15.85;;;20.20;99.90;;;;;;5019848;28;20395;-67
2023/08/07 06:16:30;;;;;;;24.98;17.20;;;20.10;99.90;;;;;;5020467;28;20052;-66
2023/08/07 06:18:58;;;;;;;21.38;15.70;;;20.10;99.90;;;;;;5022675;28;20042;-67
2023/08/07 06:21:25;;;;;;;19.02;17.17;;;20.10;99.90;;;;;;5022935;28;20053;-66
2023/08/07 06:23:52;;;;;;;18.17;16.30;;;20.00;99.90;;;;;;5020050;28;20124;-65
2023/08/07 06:26:19;;;;;;;23.10;16.85;;;20.10;99.90;;;;;;5023331;28;20045;-66
2023/08/07 06:28:46;;;;;;;21.98;17.25;;;20.10;99.90;;;;;;5023523;28;20041;-67
2023/08/07 06:31:13;;;;;;;21.30;16.92;;;20.20;99.90;;;;;;5021315;28;20542;-66
2023/08/07 06:33:40;;;;;;;27.02;17.67;;;20.20;99.90;;;;;;5022741;28;20046;-68
2023/08/07 06:36:08;;;;;;;18.15;16.27;;;20.20;99.90;;;;;;5022048;28;20049;-67
2023/08/07 06:38:36;;;;;;;18.00;14.75;;;20.20;99.90;;;;;;5023048;28;20053;-68
2023/08/07 06:41:05;;;;;;;16.05;14.35;;;20.30;99.90;;;;;;5021387;28;20037;-69
2023/08/07 06:43:32;;;;;;;14.25;12.32;;;20.30;99.90;;;;;;5015342;28;20387;-66
2023/08/07 06:45:59;;;;;;;13.88;12.48;;;20.30;99.90;;;;;;5016755;28;20119;-67
2023/08/07 06:48:26;;;;;;;18.42;12.00;;;20.30;99.90;;;;;;5016258;28;20049;-69
2023/08/07 06:50:52;;;;;;;12.93;11.40;;;20.30;99.90;;;;;;5018343;28;20049;-67
2023/08/07 06:53:20;;;;;;;11.85;10.65;;;20.30;99.90;;;;;;5017875;28;20064;-73
2023/08/07 06:55:46;;;;;;;11.43;10.30;;;20.20;99.90;;;;;;5023499;28;20069;-69
2023/08/07 06:58:13;;;;;;;13.13;10.82;;;20.20;99.90;;;;;;5019967;28;20053;-68
2023/08/07 07:00:40;;;;;;;12.45;11.25;;;20.10;99.90;;;;;;5019507;28;20045;-74
2023/08/07 07:03:09;;;;;;;12.00;9.85;;;20.20;99.90;;;;;;5015730;28;20038;-72
2023/08/07 07:05:37;;;;;;;10.30;8.48;;;20.10;99.90;;;;;;5021236;28;20049;-71
2023/08/07 07:08:04;;;;;;;8.95;7.47;;;20.10;99.90;;;;;;5019576;28;20057;-72
2023/08/07 07:10:32;;;;;;;10.90;8.27;;;20.10;99.90;;;;;;5021897;28;20110;-69
2023/08/07 07:12:59;;;;;;;8.13;7.53;;;20.10;99.90;;;;;;5023075;28;20041;-69
2023/08/07 07:15:26;;;;;;;8.90;8.10;;;20.10;99.90;;;;;;5021825;28;20037;-67
2023/08/07 07:17:53;;;;;;;7.82;7.13;;;20.00;99.90;;;;;;5019899;28;20083;-72
2023/08/07 07:20:20;;;;;;;8.20;7.10;;;20.00;99.90;;;;;;5021759;28;20080;-72
2023/08/07 07:22:47;;;;;;;6.93;6.28;;;20.10;99.90;;;;;;5023611;28;20092;-69
2023/08/07 07:25:14;;;;;;;7.70;5.43;;;20.20;99.90;;;;;;5022533;28;20177;-69
2023/08/07 07:27:41;;;;;;;6.72;5.25;;;20.20;99.90;;;;;;5018618;28;20049;-69
2023/08/07 07:30:08;;;;;;;8.90;5.40;;;20.30;99.90;;;;;;5022235;28;20682;-69
2023/08/07 07:32:35;;;;;;;6.15;5.43;;;20.30;99.90;;;;;;5020244;28;20049;-70
2023/08/07 07:35:03;;;;;;;5.47;4.93;;;20.30;99.90;;;;;;5022540;28;20125;-69
2023/08/07 07:37:31;;;;;;;5.15;4.65;;;20.30;99.90;;;;;;5020827;28;20518;-68
2023/08/07 07:39:58;;;;;;;7.30;5.63;;;20.30;99.90;;;;;;5020895;28;20495;-68
2023/08/07 07:42:25;;;;;;;6.75;4.90;;;20.40;99.90;;;;;;5021451;28;20061;-69
2023/08/07 07:44:52;;;;;;;5.82;5.15;;;20.50;99.90;;;;;;5021288;28;20139;-70
2023/08/07 07:47:19;;;;;;;5.53;5.13;;;20.60;99.90;;;;;;5017852;28;20045;-68
2023/08/07 07:49:49;;;;;;;5.97;5.10;;;20.60;99.90;;;;;;5019553;28;20040;-69
2023/08/07 07:52:16;;;;;;;7.65;6.25;;;20.80;99.90;;;;;;5021557;28;20627;-72
2023/08/07 07:54:43;;;;;;;7.50;5.20;;;20.80;99.90;;;;;;5018943;28;20048;-70
2023/08/07 07:57:10;;;;;;;7.15;4.95;;;20.90;99.90;;;;;;5015230;28;20080;-69
2023/08/07 07:59:37;;;;;;;6.07;5.57;;;21.00;99.90;;;;;;5020260;28;20042;-69
2023/08/07 08:02:04;;;;;;;7.97;5.05;;;21.10;99.90;;;;;;5018057;28;20041;-69
2023/08/07 08:04:31;;;;;;;6.82;6.22;;;21.10;99.90;;;;;;5020201;28;20033;-70
2023/08/07 08:06:59;;;;;;;9.38;5.38;;;21.30;99.90;;;;;;5020308;28;20077;-71
2023/08/07 08:09:26;;;;;;;6.07;5.47;;;21.30;99.90;;;;;;5021916;28;20044;-69
2023/08/07 08:11:53;;;;;;;7.72;5.25;;;21.30;99.90;;;;;;5017164;28;20045;-70
2023/08/07 08:14:20;;;;;;;10.13;5.93;;;21.30;99.90;;;;;;5023934;28;20044;-70
2023/08/07 08:16:47;;;;;;;8.45;6.57;;;21.20;99.90;;;;;;5025476;28;20181;-69
2023/08/07 08:19:16;;;;;;;8.80;6.82;;;21.10;99.90;;;;;;5023821;28;20049;-70
2023/08/07 08:21:43;;;;;;;8.57;7.63;;;21.10;99.90;;;;;;5025910;28;20729;-71
2023/08/07 08:24:10;;;;;;;10.13;8.15;;;20.90;99.90;;;;;;5018992;28;20483;-72
2023/08/07 08:26:37;;;;;;;9.02;6.35;;;20.90;99.90;;;;;;5022569;28;20049;-70
2023/08/07 08:29:06;;;;;;;6.53;5.93;;;21.00;99.90;;;;;;5019985;28;20073;-70
2023/08/07 08:31:34;;;;;;;;;;;20.90;99.90;;;;;;5023134;28;20038;-73
2023/08/07 08:34:01;;;;;;;8.88;5.28;;;21.00;99.90;;;;;;5022446;28;20013;-70
2023/08/07 08:36:28;;;;;;;11.68;6.00;;;20.90;99.90;;;;;;5022554;28;20645;-69
2023/08/07 08:38:55;;;;;;;7.82;6.28;;;21.00;99.90;;;;;;5020374;28;20660;-69
2023/08/07 08:41:22;;;;;;;5.82;4.95;;;21.00;99.90;;;;;;5023497;28;20045;-70
2023/08/07 08:43:52;;;;;;;8.02;5.78;;;20.90;99.90;;;;;;5023814;28;20056;-69
2023/08/07 08:46:21;;;;;;;;;;;21.00;99.90;;;;;;5020478;28;20133;-72
2023/08/07 08:48:51;;;;;;;5.53;5.03;;;21.10;99.90;;;;;;5025398;28;19921;-69
2023/08/07 08:51:21;;;;;;;7.68;4.18;;;21.20;99.90;;;;;;5021979;28;20046;-70
2023/08/07 08:53:49;;;;;;;;;;;21.30;99.90;;;;;;5020633;28;20041;-71
2023/08/07 08:56:16;;;;;;;4.18;3.88;;;21.40;99.90;;;;;;5017706;28;19935;-72
2023/08/07 08:58:43;;;;;;;8.65;3.58;;;21.40;99.90;;;;;;5020201;28;20453;-71
2023/08/07 09:01:12;;;;;;;4.63;3.05;;;21.50;99.90;;;;;;5023569;28;20041;-70
2023/08/07 09:03:39;;;;;;;3.28;2.97;;;21.40;99.90;;;;;;5024510;28;20107;-73
2023/08/07 09:06:07;;;;;;;4.13;3.50;;;21.50;99.90;;;;;;5016679;28;20045;-70
2023/08/07 09:08:35;;;;;;;3.17;2.85;;;21.60;99.90;;;;;;5020716;28;20659;-71
2023/08/07 09:11:03;;;;;;;8.07;6.65;;;21.60;99.90;;;;;;5021260;28;20039;-72
2023/08/07 09:13:33;;;;;;;4.13;3.72;;;21.60;99.90;;;;;;5023030;28;20053;-69
2023/08/07 09:16:01;;;;;;;5.07;3.75;;;21.70;99.90;;;;;;5023495;28;20053;-69
2023/08/07 09:18:28;;;;;;;3.50;3.20;;;21.60;99.90;;;;;;5024143;28;20045;-69
2023/08/07 09:20:57;;;;;;;3.72;3.42;;;21.60;99.90;;;;;;5023512;28;20056;-69
2023/08/07 09:23:24;;;;;;;3.90;3.50;;;21.80;99.90;;;;;;5016342;28;20060;-71
2023/08/07 09:26:02;;;;;;;4.72;3.20;;;21.80;99.90;;;;;;5021873;28;20073;-69
2023/08/07 09:28:30;;;;;;;3.63;3.28;;;21.80;99.90;;;;;;5022911;28;20092;-68
2023/08/07 09:30:57;;;;;;;2.83;2.53;;;22.00;99.90;;;;;;5025295;28;20056;-68
2023/08/07 09:33:29;;;;;;;3.35;3.05;;;21.90;99.90;;;;;;5020098;28;20037;-68
2023/08/07 09:36:00;;;;;;;3.47;2.88;;;21.90;99.90;;;;;;5021510;28;20057;-71
2023/08/07 09:38:32;;;;;;;2.70;2.50;;;21.90;99.90;;;;;;5020743;28;20057;-70
2023/08/07 09:41:00;;;;;;;3.33;3.03;;;21.90;99.90;;;;;;5023483;28;20060;-69
2023/08/07 09:43:28;;;;;;;2.75;2.42;;;22.00;99.90;;;;;;5021184;28;20034;-68
2023/08/07 09:46:07;;;;;;;4.80;2.60;;;22.10;99.90;;;;;;5024942;28;20038;-71
2023/08/07 09:48:43;;;;;;;3.08;2.55;;;22.10;99.90;;;;;;5023921;28;20253;-69
2023/08/07 09:51:11;;;;;;;3.72;2.72;;;22.20;99.90;;;;;;5023406;28;20045;-69
2023/08/07 09:53:38;;;;;;;2.60;2.40;;;22.30;99.90;;;;;;5020907;28;20079;-70
2023/08/07 09:56:06;;;;;;;3.95;2.55;;;22.30;99.90;;;;;;5022055;28;20053;-69
2023/08/07 09:58:33;;;;;;;1.88;1.75;;;22.30;99.90;;;;;;5022565;28;20044;-69
2023/08/07 10:01:04;;;;;;;1.98;1.85;;;22.30;99.90;;;;;;5024118;28;20902;-70
2023/08/07 10:03:31;;;;;;;2.70;2.35;;;22.30;99.90;;;;;;5023844;28;20052;-69
2023/08/07 10:05:59;;;;;;;2.25;1.95;;;22.20;99.90;;;;;;5020583;28;20048;-69
2023/08/07 10:08:28;;;;;;;2.03;1.88;;;22.30;99.90;;;;;;5023220;28;20049;-69
2023/08/07 10:10:55;;;;;;;3.58;2.40;;;22.30;99.90;;;;;;5019912;28;20042;-68
2023/08/07 10:13:23;;;;;;;2.47;2.28;;;22.20;99.90;;;;;;5023940;28;20099;-69
2023/08/07 10:16:05;;;;;;;2.47;1.75;;;22.20;99.90;;;;;;5022726;28;20045;-70
2023/08/07 10:18:32;;;;;;;2.78;1.90;;;22.30;99.90;;;;;;5023038;28;20045;-70
2023/08/07 10:21:01;;;;;;;3.10;1.92;;;22.30;99.90;;;;;;5023737;28;20164;-68
2023/08/07 10:23:28;;;;;;;2.45;2.25;;;22.30;99.90;;;;;;5018208;28;20064;-69
2023/08/07 10:25:56;;;;;;;3.40;1.73;;;22.20;99.90;;;;;;5021656;28;20702;-69
2023/08/07 10:28:25;;;;;;;2.20;2.08;;;22.20;99.90;;;;;;5022227;28;20053;-69
2023/08/07 10:30:57;;;;;;;1.92;1.30;;;22.20;99.90;;;;;;5024534;28;20096;-69
2023/08/07 10:33:24;;;;;;;1.95;1.40;;;22.20;99.90;;;;;;5022532;28;20754;-68
2023/08/07 10:35:52;;;;;;;1.70;1.60;;;22.30;99.90;;;;;;5021086;28;20052;-69
2023/08/07 10:38:23;;;;;;;6.05;1.83;;;22.60;99.90;;;;;;5021543;28;20041;-68
2023/08/07 10:41:14;;;;;;;2.03;1.40;;;22.80;99.90;;;;;;5020316;28;20049;-68
2023/08/07 10:43:43;;;;;;;1.90;0.90;;;22.90;99.90;;;;;;5019931;28;20072;-69
2023/08/07 10:46:15;;;;;;;0.73;0.70;;;22.80;99.90;;;;;;5022475;28;20569;-69
2023/08/07 10:48:47;;;;;;;1.73;0.52;;;22.70;99.90;;;;;;5020378;28;20626;-68
2023/08/07 10:51:15;;;;;;;14.13;3.80;;;22.60;99.90;;;;;;5019590;28;20037;-69
2023/08/07 10:53:47;;;;;;;1.52;0.40;;;22.70;99.90;;;;;;5016222;28;20064;-68
2023/08/07 10:56:37;;;;;;;1.25;0.85;;;22.50;99.90;;;;;;5022122;28;20065;-69
2023/08/07 10:59:12;;;;;;;2.28;0.38;;;22.40;99.90;;;;;;5017680;28;20498;-69
2023/08/07 11:01:38;;;;;;;6.50;1.25;;;22.40;99.90;;;;;;5022531;28;20053;-68
2023/08/07 11:04:10;;;;;;;1.20;0.40;;;22.30;99.90;;;;;;5021620;28;20049;-69
2023/08/07 11:06:39;;;;;;;0.35;0.20;;;22.10;99.90;;;;;;5018582;28;20049;-69
2023/08/07 11:09:08;;;;;;;2.25;1.23;;;22.20;99.90;;;;;;5016438;28;20095;-69
2023/08/07 11:11:39;;;;;;;2.53;1.17;;;22.20;99.90;;;;;;5022880;28;20480;-69
2023/08/07 11:14:08;;;;;;;1.17;0.57;;;22.30;99.90;;;;;;5018639;28;20084;-69
2023/08/07 11:16:36;;;;;;;0.45;0.20;;;22.60;99.90;;;;;;5020396;28;20049;-70
2023/08/07 11:19:04;;;;;;;0.73;0.15;;;22.70;99.90;;;;;;5023880;28;20169;-70
2023/08/07 11:21:32;;;;;;;1.02;0.45;;;22.50;99.90;;;;;;5022891;28;20396;-70
2023/08/07 11:24:01;;;;;;;0.30;0.30;;;22.30;99.90;;;;;;5020029;28;20130;-69
2023/08/07 11:26:28;;;;;;;0.98;0.40;;;22.10;99.90;;;;;;5024169;28;20041;-71
2023/08/07 11:28:56;;;;;;;1.15;0.20;;;22.00;99.90;;;;;;5024042;28;20135;-69
2023/08/07 11:31:24;;;;;;;0.38;0.20;;;22.00;99.90;;;;;;5021616;28;20198;-69
2023/08/07 11:33:52;;;;;;;1.52;0.50;;;21.90;99.90;;;;;;5022644;28;20048;-70
2023/08/07 11:36:19;;;;;;;0.57;0.13;;;22.00;99.90;;;;;;5024113;28;20037;-70
2023/08/07 11:38:46;;;;;;;2.08;0.32;;;21.90;99.90;;;;;;5017922;28;20503;-70
2023/08/07 11:41:16;;;;;;;0.30;0.25;;;21.70;99.90;;;;;;5021077;28;20041;-69
2023/08/07 11:43:43;;;;;;;4.50;1.15;;;21.70;99.90;;;;;;5020711;28;20146;-70
2023/08/07 11:46:13;;;;;;;1.13;0.20;;;21.50;99.90;;;;;;5022042;28;20142;-69
2023/08/07 11:48:41;;;;;;;0.70;0.20;;;21.30;99.90;;;;;;5017505;28;20707;-69
2023/08/07 11:51:08;;;;;;;0.32;0.15;;;21.20;99.90;;;;;;5023404;28;20061;-69
2023/08/07 11:53:37;;;;;;;1.05;0.28;;;21.00;99.90;;;;;;5021567;28;20073;-70
2023/08/07 11:56:09;;;;;;;2.10;0.35;;;21.00;99.90;;;;;;5022186;28;20053;-70
2023/08/07 11:58:41;;;;;;;0.57;0.30;;;21.10;99.90;;;;;;5023559;28;20046;-70
2023/08/07 12:01:14;;;;;;;0.88;0.20;;;21.30;99.90;;;;;;5025671;28;20065;-70
2023/08/07 12:04:13;;;;;;;0.75;0.45;;;21.40;99.90;;;;;;5021408;28;20407;-70
2023/08/07 12:06:56;;;;;;;0.60;0.25;;;21.40;99.90;;;;;;5000773;28;20061;-70
2023/08/07 12:09:26;;;;;;;2.53;0.75;;;21.40;99.90;;;;;;5022231;28;20065;-69
2023/08/07 12:11:58;;;;;;;0.88;0.75;;;21.40;99.90;;;;;;5026135;28;20049;-69
2023/08/07 12:14:29;;;;;;;0.32;0.20;;;21.20;99.90;;;;;;5021995;28;20045;-70
2023/08/07 12:16:56;;;;;;;0.68;0.68;;;21.20;99.90;;;;;;5024430;28;20042;-69
2023/08/07 12:19:24;;;;;;;0.30;0.15;;;21.10;99.90;;;;;;5025492;28;20046;-70
2023/08/07 12:21:51;;;;;;;0.28;0.15;;;21.00;99.90;;;;;;5025065;28;20037;-69
2023/08/07 12:24:18;;;;;;;1.05;0.52;;;21.00;99.90;;;;;;5023090;28;20115;-69
2023/08/07 12:26:44;;;;;;;2.17;0.50;;;20.90;99.90;;;;;;5026001;28;20064;-69
2023/08/07 12:29:11;;;;;;;0.47;0.17;;;20.80;99.90;;;;;;5025095;28;20659;-69
2023/08/07 12:31:38;;;;;;;1.10;0.30;;;20.80;99.90;;;;;;5024441;28;20589;-69
2023/08/07 12:34:06;;;;;;;1.02;0.43;;;20.90;99.90;;;;;;5026422;28;20059;-68
2023/08/07 12:36:35;;;;;;;2.67;0.57;;;20.90;99.90;;;;;;5024421;28;20437;-68
2023/08/07 12:39:03;;;;;;;1.02;0.75;;;21.00;99.90;;;;;;5021914;28;20103;-69
2023/08/07 12:41:30;;;;;;;0.47;0.20;;;21.10;99.90;;;;;;5026376;28;20597;-69
2023/08/07 12:44:01;;;;;;;1.75;0.65;;;21.10;99.90;;;;;;5022080;28;20123;-70